sensor_id;sensor_type;location;lat;lon;timestamp;P1;durP1;ratioP1;P2;durP2;ratioP2
5987;SDS011;3021;51.000;6.980;2022-07-18T00:02:05;6.13;;;2.38;;
5987;SDS011;3021;51.000;6.980;2022-07-18T00:04:30;2.97;;;2.30;;
5987;SDS011;3021;51.000;6.980;2022-07-18T00:06:56;3.90;;;1.80;;
5987;SDS011;3021;51.000;6.980;2022-07-18T00:09:21;4.28;;;2.00;;
5987;SDS011;3021;51.000;6.980;2022-07-18T00:11:48;5.00;;;2.15;;
5987;SDS011;3021;51.000;6.980;2022-07-18T00:14:15;3.92;;;2.50;;
5987;SDS011;3021;51.000;6.980;2022-07-18T00:16:40;5.20;;;2.00;;
5987;SDS011;3021;51.000;6.980;2022-07-18T00:19:06;3.90;;;2.25;;
5987;SDS011;3021;51.000;6.980;2022-07-18T00:21:31;2.30;;;1.70;;
5987;SDS011;3021;51.000;6.980;2022-07-18T00:23:57;3.15;;;1.98;;
5987;SDS011;3021;51.000;6.980;2022-07-18T00:26:23;3.45;;;1.98;;
5987;SDS011;3021;51.000;6.980;2022-07-18T00:28:48;4.70;;;1.85;;
5987;SDS011;3021;51.000;6.980;2022-07-18T00:31:13;5.68;;;2.13;;
5987;SDS011;3021;51.000;6.980;2022-07-18T00:33:39;4.70;;;1.67;;
5987;SDS011;3021;51.000;6.980;2022-07-18T00:36:04;4.22;;;1.67;;
5987;SDS011;3021;51.000;6.980;2022-07-18T00:38:30;6.30;;;2.10;;
5987;SDS011;3021;51.000;6.980;2022-07-18T00:40:55;3.17;;;1.63;;
5987;SDS011;3021;51.000;6.980;2022-07-18T00:43:21;6.20;;;1.63;;
5987;SDS011;3021;51.000;6.980;2022-07-18T00:45:47;3.78;;;1.92;;
5987;SDS011;3021;51.000;6.980;2022-07-18T00:48:13;5.25;;;2.10;;
5987;SDS011;3021;51.000;6.980;2022-07-18T00:50:40;4.47;;;1.90;;
5987;SDS011;3021;51.000;6.980;2022-07-18T00:53:06;3.63;;;2.10;;
5987;SDS011;3021;51.000;6.980;2022-07-18T00:55:33;3.97;;;2.10;;
5987;SDS011;3021;51.000;6.980;2022-07-18T00:57:58;2.50;;;1.70;;
5987;SDS011;3021;51.000;6.980;2022-07-18T01:00:24;3.58;;;1.42;;
5987;SDS011;3021;51.000;6.980;2022-07-18T01:03:09;8.75;;;1.80;;
5987;SDS011;3021;51.000;6.980;2022-07-18T01:05:35;4.38;;;1.85;;
5987;SDS011;3021;51.000;6.980;2022-07-18T01:08:01;2.67;;;1.88;;
5987;SDS011;3021;51.000;6.980;2022-07-18T01:10:26;5.05;;;2.63;;
5987;SDS011;3021;51.000;6.980;2022-07-18T01:12:52;4.22;;;2.10;;
5987;SDS011;3021;51.000;6.980;2022-07-18T01:15:17;5.68;;;2.22;;
5987;SDS011;3021;51.000;6.980;2022-07-18T01:17:43;5.20;;;1.90;;
5987;SDS011;3021;51.000;6.980;2022-07-18T01:20:08;3.97;;;1.90;;
5987;SDS011;3021;51.000;6.980;2022-07-18T01:22:34;4.90;;;2.15;;
5987;SDS011;3021;51.000;6.980;2022-07-18T01:25:00;6.00;;;1.90;;
5987;SDS011;3021;51.000;6.980;2022-07-18T01:27:25;5.03;;;1.90;;
5987;SDS011;3021;51.000;6.980;2022-07-18T01:29:51;8.10;;;1.70;;
5987;SDS011;3021;51.000;6.980;2022-07-18T01:32:17;4.57;;;2.15;;
5987;SDS011;3021;51.000;6.980;2022-07-18T01:34:44;5.20;;;2.25;;
5987;SDS011;3021;51.000;6.980;2022-07-18T01:37:11;5.47;;;2.00;;
5987;SDS011;3021;51.000;6.980;2022-07-18T01:39:37;4.18;;;1.70;;
5987;SDS011;3021;51.000;6.980;2022-07-18T01:42:04;6.65;;;2.00;;
5987;SDS011;3021;51.000;6.980;2022-07-18T01:44:32;5.72;;;2.20;;
5987;SDS011;3021;51.000;6.980;2022-07-18T01:46:59;5.20;;;1.98;;
5987;SDS011;3021;51.000;6.980;2022-07-18T01:49:25;3.03;;;1.92;;
5987;SDS011;3021;51.000;6.980;2022-07-18T01:51:52;6.47;;;1.65;;
5987;SDS011;3021;51.000;6.980;2022-07-18T01:54:22;4.05;;;1.67;;
5987;SDS011;3021;51.000;6.980;2022-07-18T01:56:49;4.55;;;1.90;;
5987;SDS011;3021;51.000;6.980;2022-07-18T01:59:15;3.13;;;1.83;;
5987;SDS011;3021;51.000;6.980;2022-07-18T02:01:41;3.90;;;1.92;;
5987;SDS011;3021;51.000;6.980;2022-07-18T02:04:06;2.88;;;1.98;;
5987;SDS011;3021;51.000;6.980;2022-07-18T02:06:32;4.13;;;2.10;;
5987;SDS011;3021;51.000;6.980;2022-07-18T02:08:57;5.97;;;2.25;;
5987;SDS011;3021;51.000;6.980;2022-07-18T02:11:22;4.40;;;2.03;;
5987;SDS011;3021;51.000;6.980;2022-07-18T02:13:48;4.88;;;1.67;;
5987;SDS011;3021;51.000;6.980;2022-07-18T02:16:13;4.97;;;2.20;;
5987;SDS011;3021;51.000;6.980;2022-07-18T02:18:38;3.50;;;2.30;;
5987;SDS011;3021;51.000;6.980;2022-07-18T02:21:04;7.78;;;2.00;;
5987;SDS011;3021;51.000;6.980;2022-07-18T02:23:30;3.75;;;1.75;;
5987;SDS011;3021;51.000;6.980;2022-07-18T02:25:55;5.13;;;2.13;;
5987;SDS011;3021;51.000;6.980;2022-07-18T02:28:21;3.97;;;2.28;;
5987;SDS011;3021;51.000;6.980;2022-07-18T02:30:47;5.57;;;1.90;;
5987;SDS011;3021;51.000;6.980;2022-07-18T02:33:16;6.25;;;2.00;;
5987;SDS011;3021;51.000;6.980;2022-07-18T02:35:41;4.43;;;2.10;;
5987;SDS011;3021;51.000;6.980;2022-07-18T02:38:07;3.65;;;2.00;;
5987;SDS011;3021;51.000;6.980;2022-07-18T02:40:32;3.72;;;2.05;;
5987;SDS011;3021;51.000;6.980;2022-07-18T02:42:58;5.05;;;2.20;;
5987;SDS011;3021;51.000;6.980;2022-07-18T02:45:24;5.32;;;2.55;;
5987;SDS011;3021;51.000;6.980;2022-07-18T02:47:50;4.47;;;2.08;;
5987;SDS011;3021;51.000;6.980;2022-07-18T02:50:15;4.35;;;2.08;;
5987;SDS011;3021;51.000;6.980;2022-07-18T02:52:40;3.17;;;1.80;;
5987;SDS011;3021;51.000;6.980;2022-07-18T02:55:07;4.32;;;2.13;;
5987;SDS011;3021;51.000;6.980;2022-07-18T02:57:33;5.43;;;2.00;;
5987;SDS011;3021;51.000;6.980;2022-07-18T02:59:59;4.25;;;2.38;;
5987;SDS011;3021;51.000;6.980;2022-07-18T03:02:25;3.78;;;2.00;;
5987;SDS011;3021;51.000;6.980;2022-07-18T03:04:51;4.43;;;2.00;;
5987;SDS011;3021;51.000;6.980;2022-07-18T03:07:16;5.05;;;1.92;;
5987;SDS011;3021;51.000;6.980;2022-07-18T03:09:42;6.50;;;2.60;;
5987;SDS011;3021;51.000;6.980;2022-07-18T03:12:07;3.70;;;2.22;;
5987;SDS011;3021;51.000;6.980;2022-07-18T03:14:33;4.63;;;2.53;;
5987;SDS011;3021;51.000;6.980;2022-07-18T03:16:58;5.10;;;3.22;;
5987;SDS011;3021;51.000;6.980;2022-07-18T03:19:24;6.20;;;2.50;;
5987;SDS011;3021;51.000;6.980;2022-07-18T03:21:49;3.72;;;2.10;;
5987;SDS011;3021;51.000;6.980;2022-07-18T03:24:15;4.70;;;2.20;;
5987;SDS011;3021;51.000;6.980;2022-07-18T03:26:40;3.92;;;1.80;;
5987;SDS011;3021;51.000;6.980;2022-07-18T03:29:06;8.13;;;2.53;;
5987;SDS011;3021;51.000;6.980;2022-07-18T03:31:32;6.35;;;2.25;;
5987;SDS011;3021;51.000;6.980;2022-07-18T03:33:57;4.57;;;2.00;;
5987;SDS011;3021;51.000;6.980;2022-07-18T03:36:22;6.47;;;2.65;;
5987;SDS011;3021;51.000;6.980;2022-07-18T03:38:48;6.63;;;2.40;;
5987;SDS011;3021;51.000;6.980;2022-07-18T03:41:13;7.38;;;2.47;;
5987;SDS011;3021;51.000;6.980;2022-07-18T03:43:39;5.32;;;2.05;;
5987;SDS011;3021;51.000;6.980;2022-07-18T03:46:05;3.97;;;2.05;;
5987;SDS011;3021;51.000;6.980;2022-07-18T03:48:31;4.22;;;2.30;;
5987;SDS011;3021;51.000;6.980;2022-07-18T03:50:57;11.00;;;2.45;;
5987;SDS011;3021;51.000;6.980;2022-07-18T03:53:23;4.97;;;2.13;;
5987;SDS011;3021;51.000;6.980;2022-07-18T03:55:48;5.38;;;2.55;;
5987;SDS011;3021;51.000;6.980;2022-07-18T03:58:13;4.78;;;2.53;;
5987;SDS011;3021;51.000;6.980;2022-07-18T04:00:39;5.70;;;2.30;;
5987;SDS011;3021;51.000;6.980;2022-07-18T04:03:04;6.10;;;2.40;;
5987;SDS011;3021;51.000;6.980;2022-07-18T04:05:29;3.92;;;2.22;;
5987;SDS011;3021;51.000;6.980;2022-07-18T04:07:55;5.28;;;2.20;;
5987;SDS011;3021;51.000;6.980;2022-07-18T04:10:20;4.38;;;1.83;;
5987;SDS011;3021;51.000;6.980;2022-07-18T04:12:50;7.28;;;2.25;;
5987;SDS011;3021;51.000;6.980;2022-07-18T04:15:17;5.03;;;2.22;;
5987;SDS011;3021;51.000;6.980;2022-07-18T04:17:44;4.70;;;2.25;;
5987;SDS011;3021;51.000;6.980;2022-07-18T04:20:10;5.15;;;1.92;;
5987;SDS011;3021;51.000;6.980;2022-07-18T04:23:10;5.20;;;2.10;;
5987;SDS011;3021;51.000;6.980;2022-07-18T04:25:33;3.13;;;1.92;;
5987;SDS011;3021;51.000;6.980;2022-07-18T04:28:01;8.25;;;2.28;;
5987;SDS011;3021;51.000;6.980;2022-07-18T04:30:27;9.40;;;2.55;;
5987;SDS011;3021;51.000;6.980;2022-07-18T04:32:53;5.25;;;2.20;;
5987;SDS011;3021;51.000;6.980;2022-07-18T04:35:19;5.22;;;2.30;;
5987;SDS011;3021;51.000;6.980;2022-07-18T04:37:45;5.20;;;2.30;;
5987;SDS011;3021;51.000;6.980;2022-07-18T04:40:10;4.82;;;2.05;;
5987;SDS011;3021;51.000;6.980;2022-07-18T04:42:37;2.88;;;1.80;;
5987;SDS011;3021;51.000;6.980;2022-07-18T04:45:03;3.75;;;1.90;;
5987;SDS011;3021;51.000;6.980;2022-07-18T04:47:30;3.38;;;1.88;;
5987;SDS011;3021;51.000;6.980;2022-07-18T04:49:55;4.80;;;1.80;;
5987;SDS011;3021;51.000;6.980;2022-07-18T04:52:21;3.97;;;1.63;;
5987;SDS011;3021;51.000;6.980;2022-07-18T04:54:46;4.35;;;1.65;;
5987;SDS011;3021;51.000;6.980;2022-07-18T04:57:12;6.22;;;2.00;;
5987;SDS011;3021;51.000;6.980;2022-07-18T04:59:40;7.05;;;2.00;;
5987;SDS011;3021;51.000;6.980;2022-07-18T05:02:06;3.47;;;1.92;;
5987;SDS011;3021;51.000;6.980;2022-07-18T05:04:33;4.03;;;1.95;;
5987;SDS011;3021;51.000;6.980;2022-07-18T05:06:59;3.33;;;1.52;;
5987;SDS011;3021;51.000;6.980;2022-07-18T05:09:24;6.00;;;2.08;;
5987;SDS011;3021;51.000;6.980;2022-07-18T05:11:49;2.97;;;1.60;;
5987;SDS011;3021;51.000;6.980;2022-07-18T05:14:15;5.60;;;1.60;;
5987;SDS011;3021;51.000;6.980;2022-07-18T05:16:40;3.20;;;2.15;;
5987;SDS011;3021;51.000;6.980;2022-07-18T05:19:06;4.18;;;1.98;;
5987;SDS011;3021;51.000;6.980;2022-07-18T05:21:31;4.93;;;2.10;;
5987;SDS011;3021;51.000;6.980;2022-07-18T05:23:56;4.47;;;1.90;;
5987;SDS011;3021;51.000;6.980;2022-07-18T05:26:22;6.22;;;1.65;;
5987;SDS011;3021;51.000;6.980;2022-07-18T05:28:47;7.82;;;2.10;;
5987;SDS011;3021;51.000;6.980;2022-07-18T05:31:13;5.05;;;1.73;;
5987;SDS011;3021;51.000;6.980;2022-07-18T05:33:38;2.90;;;1.60;;
5987;SDS011;3021;51.000;6.980;2022-07-18T05:36:04;5.28;;;1.88;;
5987;SDS011;3021;51.000;6.980;2022-07-18T05:38:29;5.28;;;1.67;;
5987;SDS011;3021;51.000;6.980;2022-07-18T05:40:55;3.03;;;1.85;;
5987;SDS011;3021;51.000;6.980;2022-07-18T05:43:20;3.65;;;1.83;;
5987;SDS011;3021;51.000;6.980;2022-07-18T05:45:46;3.63;;;1.70;;
5987;SDS011;3021;51.000;6.980;2022-07-18T05:48:11;4.78;;;1.58;;
5987;SDS011;3021;51.000;6.980;2022-07-18T05:50:36;4.65;;;1.40;;
5987;SDS011;3021;51.000;6.980;2022-07-18T05:53:02;3.08;;;1.67;;
5987;SDS011;3021;51.000;6.980;2022-07-18T05:55:27;6.25;;;1.27;;
5987;SDS011;3021;51.000;6.980;2022-07-18T05:57:53;6.45;;;2.10;;
5987;SDS011;3021;51.000;6.980;2022-07-18T06:00:18;2.90;;;1.60;;
5987;SDS011;3021;51.000;6.980;2022-07-18T06:02:46;4.22;;;1.92;;
5987;SDS011;3021;51.000;6.980;2022-07-18T06:05:12;3.35;;;1.52;;
5987;SDS011;3021;51.000;6.980;2022-07-18T06:07:37;4.65;;;1.40;;
5987;SDS011;3021;51.000;6.980;2022-07-18T06:10:03;2.63;;;1.42;;
5987;SDS011;3021;51.000;6.980;2022-07-18T06:12:29;2.47;;;1.30;;
5987;SDS011;3021;51.000;6.980;2022-07-18T06:14:58;2.55;;;1.48;;
5987;SDS011;3021;51.000;6.980;2022-07-18T06:17:24;3.42;;;1.60;;
5987;SDS011;3021;51.000;6.980;2022-07-18T06:19:50;4.70;;;1.38;;
5987;SDS011;3021;51.000;6.980;2022-07-18T06:22:15;3.72;;;1.52;;
5987;SDS011;3021;51.000;6.980;2022-07-18T06:24:41;2.38;;;1.17;;
5987;SDS011;3021;51.000;6.980;2022-07-18T06:27:06;2.67;;;1.23;;
5987;SDS011;3021;51.000;6.980;2022-07-18T06:29:32;5.68;;;1.20;;
5987;SDS011;3021;51.000;6.980;2022-07-18T06:31:57;2.67;;;1.30;;
5987;SDS011;3021;51.000;6.980;2022-07-18T06:34:23;5.40;;;1.30;;
5987;SDS011;3021;51.000;6.980;2022-07-18T06:36:48;5.40;;;1.63;;
5987;SDS011;3021;51.000;6.980;2022-07-18T06:39:13;2.63;;;1.48;;
5987;SDS011;3021;51.000;6.980;2022-07-18T06:41:41;4.20;;;1.35;;
5987;SDS011;3021;51.000;6.980;2022-07-18T06:44:07;4.60;;;1.63;;
5987;SDS011;3021;51.000;6.980;2022-07-18T06:46:32;1.70;;;1.00;;
5987;SDS011;3021;51.000;6.980;2022-07-18T06:48:58;2.63;;;1.15;;
5987;SDS011;3021;51.000;6.980;2022-07-18T06:51:23;2.83;;;1.80;;
5987;SDS011;3021;51.000;6.980;2022-07-18T06:53:49;5.95;;;1.30;;
5987;SDS011;3021;51.000;6.980;2022-07-18T06:56:16;2.90;;;1.67;;
5987;SDS011;3021;51.000;6.980;2022-07-18T06:58:41;1.63;;;0.93;;
5987;SDS011;3021;51.000;6.980;2022-07-18T07:01:07;3.42;;;1.35;;
5987;SDS011;3021;51.000;6.980;2022-07-18T07:03:32;3.17;;;1.48;;
5987;SDS011;3021;51.000;6.980;2022-07-18T07:05:57;4.68;;;1.30;;
5987;SDS011;3021;51.000;6.980;2022-07-18T07:08:23;5.40;;;1.60;;
5987;SDS011;3021;51.000;6.980;2022-07-18T07:10:48;4.78;;;1.45;;
5987;SDS011;3021;51.000;6.980;2022-07-18T07:13:14;1.85;;;1.40;;
5987;SDS011;3021;51.000;6.980;2022-07-18T07:15:39;5.55;;;1.40;;
5987;SDS011;3021;51.000;6.980;2022-07-18T07:18:05;4.25;;;1.30;;
5987;SDS011;3021;51.000;6.980;2022-07-18T07:20:31;6.20;;;1.33;;
5987;SDS011;3021;51.000;6.980;2022-07-18T07:22:56;4.32;;;1.35;;
5987;SDS011;3021;51.000;6.980;2022-07-18T07:25:23;3.72;;;1.33;;
5987;SDS011;3021;51.000;6.980;2022-07-18T07:27:50;8.32;;;1.60;;
5987;SDS011;3021;51.000;6.980;2022-07-18T07:30:16;3.17;;;1.40;;
5987;SDS011;3021;51.000;6.980;2022-07-18T07:32:43;2.58;;;1.40;;
5987;SDS011;3021;51.000;6.980;2022-07-18T07:35:10;3.08;;;1.15;;
5987;SDS011;3021;51.000;6.980;2022-07-18T07:37:38;2.10;;;1.10;;
5987;SDS011;3021;51.000;6.980;2022-07-18T07:40:08;5.05;;;1.63;;
5987;SDS011;3021;51.000;6.980;2022-07-18T07:42:34;3.55;;;1.55;;
5987;SDS011;3021;51.000;6.980;2022-07-18T07:45:00;4.28;;;1.17;;
5987;SDS011;3021;51.000;6.980;2022-07-18T07:47:25;2.47;;;1.50;;
5987;SDS011;3021;51.000;6.980;2022-07-18T07:49:51;3.35;;;1.55;;
5987;SDS011;3021;51.000;6.980;2022-07-18T07:52:17;6.72;;;1.55;;
5987;SDS011;3021;51.000;6.980;2022-07-18T07:54:43;3.95;;;1.30;;
5987;SDS011;3021;51.000;6.980;2022-07-18T07:57:12;3.85;;;1.33;;
5987;SDS011;3021;51.000;6.980;2022-07-18T07:59:38;3.35;;;1.42;;
5987;SDS011;3021;51.000;6.980;2022-07-18T08:02:03;2.92;;;1.40;;
5987;SDS011;3021;51.000;6.980;2022-07-18T08:04:29;4.15;;;1.65;;
5987;SDS011;3021;51.000;6.980;2022-07-18T08:06:55;4.07;;;1.63;;
5987;SDS011;3021;51.000;6.980;2022-07-18T08:09:20;4.43;;;1.48;;
5987;SDS011;3021;51.000;6.980;2022-07-18T08:11:45;3.00;;;1.50;;
5987;SDS011;3021;51.000;6.980;2022-07-18T08:14:11;4.32;;;2.05;;
5987;SDS011;3021;51.000;6.980;2022-07-18T08:16:36;4.28;;;1.40;;
5987;SDS011;3021;51.000;6.980;2022-07-18T08:19:02;5.85;;;1.60;;
5987;SDS011;3021;51.000;6.980;2022-07-18T08:21:27;2.45;;;1.30;;
5987;SDS011;3021;51.000;6.980;2022-07-18T08:23:52;7.95;;;1.40;;
5987;SDS011;3021;51.000;6.980;2022-07-18T08:26:18;3.90;;;1.35;;
5987;SDS011;3021;51.000;6.980;2022-07-18T08:28:43;4.05;;;1.27;;
5987;SDS011;3021;51.000;6.980;2022-07-18T08:31:09;4.70;;;1.10;;
5987;SDS011;3021;51.000;6.980;2022-07-18T08:33:35;3.25;;;1.50;;
5987;SDS011;3021;51.000;6.980;2022-07-18T08:36:00;3.95;;;1.33;;
5987;SDS011;3021;51.000;6.980;2022-07-18T08:38:26;4.40;;;1.50;;
5987;SDS011;3021;51.000;6.980;2022-07-18T08:40:52;7.72;;;1.90;;
5987;SDS011;3021;51.000;6.980;2022-07-18T08:43:19;3.42;;;1.48;;
5987;SDS011;3021;51.000;6.980;2022-07-18T08:45:44;3.60;;;1.40;;
5987;SDS011;3021;51.000;6.980;2022-07-18T08:48:14;5.03;;;1.30;;
5987;SDS011;3021;51.000;6.980;2022-07-18T08:50:47;5.15;;;1.30;;
5987;SDS011;3021;51.000;6.980;2022-07-18T08:53:14;3.17;;;1.30;;
5987;SDS011;3021;51.000;6.980;2022-07-18T08:55:41;6.20;;;1.30;;
5987;SDS011;3021;51.000;6.980;2022-07-18T08:58:06;5.80;;;1.50;;
5987;SDS011;3021;51.000;6.980;2022-07-18T09:00:33;3.33;;;1.17;;
5987;SDS011;3021;51.000;6.980;2022-07-18T09:02:59;3.20;;;1.23;;
5987;SDS011;3021;51.000;6.980;2022-07-18T09:05:25;5.75;;;1.40;;
5987;SDS011;3021;51.000;6.980;2022-07-18T09:07:52;5.70;;;1.48;;
5987;SDS011;3021;51.000;6.980;2022-07-18T09:10:55;10.13;;;1.80;;
5987;SDS011;3021;51.000;6.980;2022-07-18T09:13:23;4.53;;;1.25;;
5987;SDS011;3021;51.000;6.980;2022-07-18T09:16:00;2.83;;;1.40;;
5987;SDS011;3021;51.000;6.980;2022-07-18T09:18:29;4.65;;;1.42;;
5987;SDS011;3021;51.000;6.980;2022-07-18T09:21:18;5.07;;;1.60;;
5987;SDS011;3021;51.000;6.980;2022-07-18T09:23:45;3.92;;;1.40;;
5987;SDS011;3021;51.000;6.980;2022-07-18T09:29:07;5.45;;;1.70;;
5987;SDS011;3021;51.000;6.980;2022-07-18T09:31:35;2.78;;;1.17;;
5987;SDS011;3021;51.000;6.980;2022-07-18T09:34:02;3.67;;;1.23;;
5987;SDS011;3021;51.000;6.980;2022-07-18T09:36:28;5.22;;;1.63;;
5987;SDS011;3021;51.000;6.980;2022-07-18T09:38:55;7.75;;;1.65;;
5987;SDS011;3021;51.000;6.980;2022-07-18T09:41:24;5.95;;;1.58;;
5987;SDS011;3021;51.000;6.980;2022-07-18T09:43:51;4.38;;;1.58;;
5987;SDS011;3021;51.000;6.980;2022-07-18T09:46:16;4.00;;;1.40;;
5987;SDS011;3021;51.000;6.980;2022-07-18T09:48:42;4.57;;;1.58;;
5987;SDS011;3021;51.000;6.980;2022-07-18T09:51:07;5.35;;;1.42;;
5987;SDS011;3021;51.000;6.980;2022-07-18T09:56:12;4.18;;;1.70;;
5987;SDS011;3021;51.000;6.980;2022-07-18T09:58:55;2.10;;;1.20;;
5987;SDS011;3021;51.000;6.980;2022-07-18T10:01:22;5.35;;;1.50;;
5987;SDS011;3021;51.000;6.980;2022-07-18T10:03:48;5.22;;;1.80;;
5987;SDS011;3021;51.000;6.980;2022-07-18T10:06:15;5.05;;;1.20;;
5987;SDS011;3021;51.000;6.980;2022-07-18T10:08:42;8.32;;;1.67;;
5987;SDS011;3021;51.000;6.980;2022-07-18T10:11:08;6.10;;;1.27;;
5987;SDS011;3021;51.000;6.980;2022-07-18T10:13:34;6.55;;;1.50;;
5987;SDS011;3021;51.000;6.980;2022-07-18T10:16:01;2.42;;;1.42;;
5987;SDS011;3021;51.000;6.980;2022-07-18T10:18:28;3.08;;;1.35;;
5987;SDS011;3021;51.000;6.980;2022-07-18T10:20:56;4.35;;;1.13;;
5987;SDS011;3021;51.000;6.980;2022-07-18T10:26:11;6.13;;;1.50;;
5987;SDS011;3021;51.000;6.980;2022-07-18T10:31:30;7.78;;;1.60;;
5987;SDS011;3021;51.000;6.980;2022-07-18T10:36:33;3.30;;;1.40;;
5987;SDS011;3021;51.000;6.980;2022-07-18T11:02:44;6.85;;;1.50;;
5987;SDS011;3021;51.000;6.980;2022-07-18T11:21:21;5.10;;;1.35;;
5987;SDS011;3021;51.000;6.980;2022-07-18T11:24:04;2.53;;;1.35;;
5987;SDS011;3021;51.000;6.980;2022-07-18T11:26:34;2.33;;;1.38;;
5987;SDS011;3021;51.000;6.980;2022-07-18T11:29:05;5.10;;;1.30;;
5987;SDS011;3021;51.000;6.980;2022-07-18T11:31:41;3.13;;;1.27;;
5987;SDS011;3021;51.000;6.980;2022-07-18T11:34:17;1.67;;;1.27;;
5987;SDS011;3021;51.000;6.980;2022-07-18T11:36:44;3.67;;;1.35;;
5987;SDS011;3021;51.000;6.980;2022-07-18T11:39:11;5.18;;;1.27;;
5987;SDS011;3021;51.000;6.980;2022-07-18T11:41:39;5.18;;;1.60;;
5987;SDS011;3021;51.000;6.980;2022-07-18T11:44:06;4.40;;;1.33;;
5987;SDS011;3021;51.000;6.980;2022-07-18T11:46:43;5.65;;;1.83;;
5987;SDS011;3021;51.000;6.980;2022-07-18T11:49:08;7.32;;;1.48;;
5987;SDS011;3021;51.000;6.980;2022-07-18T11:51:34;8.75;;;1.70;;
5987;SDS011;3021;51.000;6.980;2022-07-18T11:54:03;5.22;;;1.40;;
5987;SDS011;3021;51.000;6.980;2022-07-18T11:56:29;2.63;;;1.40;;
5987;SDS011;3021;51.000;6.980;2022-07-18T11:58:55;3.55;;;1.50;;
5987;SDS011;3021;51.000;6.980;2022-07-18T12:01:22;3.28;;;1.65;;
5987;SDS011;3021;51.000;6.980;2022-07-18T12:03:55;3.10;;;1.50;;
5987;SDS011;3021;51.000;6.980;2022-07-18T12:06:21;2.55;;;1.50;;
5987;SDS011;3021;51.000;6.980;2022-07-18T12:08:49;2.95;;;1.55;;
5987;SDS011;3021;51.000;6.980;2022-07-18T12:11:34;2.55;;;1.45;;
5987;SDS011;3021;51.000;6.980;2022-07-18T12:40:18;6.72;;;1.70;;
5987;SDS011;3021;51.000;6.980;2022-07-18T12:42:43;4.28;;;1.30;;
5987;SDS011;3021;51.000;6.980;2022-07-18T12:45:10;1.25;;;1.15;;
5987;SDS011;3021;51.000;6.980;2022-07-18T12:47:37;2.78;;;1.40;;
5987;SDS011;3021;51.000;6.980;2022-07-18T12:50:03;2.30;;;1.60;;
5987;SDS011;3021;51.000;6.980;2022-07-18T12:52:29;3.17;;;1.75;;
5987;SDS011;3021;51.000;6.980;2022-07-18T12:54:54;4.63;;;1.38;;
5987;SDS011;3021;51.000;6.980;2022-07-18T12:57:20;3.65;;;1.50;;
5987;SDS011;3021;51.000;6.980;2022-07-18T12:59:45;4.28;;;2.28;;
5987;SDS011;3021;51.000;6.980;2022-07-18T13:02:11;2.70;;;1.67;;
5987;SDS011;3021;51.000;6.980;2022-07-18T13:04:38;5.00;;;1.60;;
5987;SDS011;3021;51.000;6.980;2022-07-18T13:07:03;2.88;;;1.30;;
5987;SDS011;3021;51.000;6.980;2022-07-18T13:09:29;2.80;;;1.33;;
5987;SDS011;3021;51.000;6.980;2022-07-18T13:11:54;2.72;;;1.33;;
5987;SDS011;3021;51.000;6.980;2022-07-18T13:14:19;7.45;;;1.55;;
5987;SDS011;3021;51.000;6.980;2022-07-18T13:16:45;11.32;;;1.83;;
5987;SDS011;3021;51.000;6.980;2022-07-18T13:19:12;3.30;;;1.50;;
5987;SDS011;3021;51.000;6.980;2022-07-18T13:21:39;3.30;;;1.67;;
5987;SDS011;3021;51.000;6.980;2022-07-18T13:24:05;5.68;;;1.70;;
5987;SDS011;3021;51.000;6.980;2022-07-18T13:26:31;4.40;;;1.52;;
5987;SDS011;3021;51.000;6.980;2022-07-18T13:28:56;6.95;;;1.80;;
5987;SDS011;3021;51.000;6.980;2022-07-18T13:31:22;11.07;;;1.70;;
5987;SDS011;3021;51.000;6.980;2022-07-18T13:33:47;3.88;;;1.70;;
5987;SDS011;3021;51.000;6.980;2022-07-18T13:36:13;2.10;;;1.50;;
5987;SDS011;3021;51.000;6.980;2022-07-18T13:38:39;3.67;;;1.48;;
5987;SDS011;3021;51.000;6.980;2022-07-18T13:41:05;6.20;;;1.48;;
5987;SDS011;3021;51.000;6.980;2022-07-18T13:43:30;3.03;;;1.40;;
5987;SDS011;3021;51.000;6.980;2022-07-18T13:45:55;5.72;;;1.40;;
5987;SDS011;3021;51.000;6.980;2022-07-18T13:48:21;9.45;;;1.67;;
5987;SDS011;3021;51.000;6.980;2022-07-18T13:50:46;7.70;;;1.60;;
5987;SDS011;3021;51.000;6.980;2022-07-18T13:53:12;3.17;;;1.80;;
5987;SDS011;3021;51.000;6.980;2022-07-18T13:55:37;4.88;;;1.52;;
5987;SDS011;3021;51.000;6.980;2022-07-18T13:58:02;8.40;;;1.58;;
5987;SDS011;3021;51.000;6.980;2022-07-18T14:00:28;3.30;;;1.70;;
5987;SDS011;3021;51.000;6.980;2022-07-18T14:02:53;3.83;;;1.58;;
5987;SDS011;3021;51.000;6.980;2022-07-18T14:05:19;3.72;;;1.42;;
5987;SDS011;3021;51.000;6.980;2022-07-18T14:07:45;8.27;;;1.48;;
5987;SDS011;3021;51.000;6.980;2022-07-18T14:10:11;6.43;;;1.58;;
5987;SDS011;3021;51.000;6.980;2022-07-18T14:12:37;6.25;;;1.48;;
5987;SDS011;3021;51.000;6.980;2022-07-18T14:15:02;3.30;;;1.45;;
5987;SDS011;3021;51.000;6.980;2022-07-18T14:17:28;6.13;;;1.75;;
5987;SDS011;3021;51.000;6.980;2022-07-18T14:19:55;4.07;;;1.60;;
5987;SDS011;3021;51.000;6.980;2022-07-18T14:22:21;3.70;;;1.38;;
5987;SDS011;3021;51.000;6.980;2022-07-18T14:24:46;3.28;;;1.75;;
5987;SDS011;3021;51.000;6.980;2022-07-18T14:27:11;6.93;;;1.70;;
5987;SDS011;3021;51.000;6.980;2022-07-18T14:29:37;6.85;;;1.50;;
5987;SDS011;3021;51.000;6.980;2022-07-18T14:32:02;5.43;;;1.75;;
5987;SDS011;3021;51.000;6.980;2022-07-18T14:34:28;6.13;;;1.40;;
5987;SDS011;3021;51.000;6.980;2022-07-18T14:36:53;5.45;;;1.52;;
5987;SDS011;3021;51.000;6.980;2022-07-18T14:39:19;6.72;;;1.80;;
5987;SDS011;3021;51.000;6.980;2022-07-18T14:41:44;4.10;;;1.77;;
5987;SDS011;3021;51.000;6.980;2022-07-18T14:44:12;6.60;;;1.60;;
5987;SDS011;3021;51.000;6.980;2022-07-18T14:46:38;5.95;;;1.88;;
5987;SDS011;3021;51.000;6.980;2022-07-18T14:49:03;2.53;;;1.50;;
5987;SDS011;3021;51.000;6.980;2022-07-18T14:51:28;4.30;;;1.63;;
5987;SDS011;3021;51.000;6.980;2022-07-18T14:53:54;3.00;;;1.23;;
5987;SDS011;3021;51.000;6.980;2022-07-18T14:56:19;4.25;;;1.40;;
5987;SDS011;3021;51.000;6.980;2022-07-18T14:58:44;7.38;;;1.58;;
5987;SDS011;3021;51.000;6.980;2022-07-18T15:01:10;4.85;;;1.50;;
5987;SDS011;3021;51.000;6.980;2022-07-18T15:03:36;6.00;;;1.50;;
5987;SDS011;3021;51.000;6.980;2022-07-18T15:06:01;9.10;;;1.65;;
5987;SDS011;3021;51.000;6.980;2022-07-18T15:08:27;4.43;;;1.40;;
5987;SDS011;3021;51.000;6.980;2022-07-18T15:10:52;3.67;;;1.55;;
5987;SDS011;3021;51.000;6.980;2022-07-18T15:13:18;5.45;;;1.52;;
5987;SDS011;3021;51.000;6.980;2022-07-18T15:15:43;4.78;;;1.67;;
5987;SDS011;3021;51.000;6.980;2022-07-18T15:18:08;11.65;;;3.47;;
5987;SDS011;3021;51.000;6.980;2022-07-18T15:20:34;4.30;;;1.77;;
5987;SDS011;3021;51.000;6.980;2022-07-18T15:22:59;5.53;;;1.70;;
5987;SDS011;3021;51.000;6.980;2022-07-18T15:25:25;4.20;;;1.50;;
5987;SDS011;3021;51.000;6.980;2022-07-18T15:27:50;3.40;;;1.42;;
5987;SDS011;3021;51.000;6.980;2022-07-18T15:30:15;6.88;;;1.63;;
5987;SDS011;3021;51.000;6.980;2022-07-18T15:32:41;4.25;;;1.63;;
5987;SDS011;3021;51.000;6.980;2022-07-18T15:35:06;2.78;;;1.27;;
5987;SDS011;3021;51.000;6.980;2022-07-18T15:37:32;4.10;;;1.60;;
5987;SDS011;3021;51.000;6.980;2022-07-18T15:39:57;4.93;;;1.67;;
5987;SDS011;3021;51.000;6.980;2022-07-18T15:42:23;2.70;;;1.38;;
5987;SDS011;3021;51.000;6.980;2022-07-18T15:44:49;6.90;;;1.50;;
5987;SDS011;3021;51.000;6.980;2022-07-18T15:47:14;2.88;;;1.70;;
5987;SDS011;3021;51.000;6.980;2022-07-18T15:49:39;2.72;;;1.40;;
5987;SDS011;3021;51.000;6.980;2022-07-18T15:52:05;8.30;;;1.60;;
5987;SDS011;3021;51.000;6.980;2022-07-18T15:54:32;6.10;;;1.52;;
5987;SDS011;3021;51.000;6.980;2022-07-18T15:56:58;6.50;;;1.40;;
5987;SDS011;3021;51.000;6.980;2022-07-18T15:59:23;6.07;;;1.40;;
5987;SDS011;3021;51.000;6.980;2022-07-18T16:02:03;4.20;;;1.55;;
5987;SDS011;3021;51.000;6.980;2022-07-18T16:04:30;8.38;;;1.80;;
5987;SDS011;3021;51.000;6.980;2022-07-18T16:06:56;5.65;;;1.67;;
5987;SDS011;3021;51.000;6.980;2022-07-18T16:09:21;7.95;;;1.50;;
5987;SDS011;3021;51.000;6.980;2022-07-18T16:11:50;4.25;;;1.30;;
5987;SDS011;3021;51.000;6.980;2022-07-18T16:14:15;2.70;;;1.50;;
5987;SDS011;3021;51.000;6.980;2022-07-18T16:16:40;5.97;;;1.45;;
5987;SDS011;3021;51.000;6.980;2022-07-18T16:19:06;3.53;;;1.40;;
5987;SDS011;3021;51.000;6.980;2022-07-18T16:21:33;5.63;;;2.58;;
5987;SDS011;3021;51.000;6.980;2022-07-18T16:24:00;4.47;;;1.70;;
5987;SDS011;3021;51.000;6.980;2022-07-18T16:26:25;5.85;;;1.60;;
5987;SDS011;3021;51.000;6.980;2022-07-18T16:28:51;4.90;;;1.75;;
5987;SDS011;3021;51.000;6.980;2022-07-18T16:31:17;4.45;;;1.58;;